Time;durP1;ratioP1;P1;durP2;ratioP2;P2;SDS_P1;SDS_P2;PMS_P1;PMS_P2;Temp;Humidity;BMP_temperature;BMP_pressure;BME280_temperature;BME280_humidity;BME280_pressure;Samples;Min_cycle;Max_cycle;Signal;HPM_P1;HPM_P2
2021/03/05 00:00:16;;;;;;;27.62;18.92;;;;;;;4.18;61.50;92542.34;1818451;79;21695;-83
2021/03/05 00:02:44;;;;;;;26.52;16.65;;;;;;;4.20;61.60;92535.23;1847976;77;21309;-83
2021/03/05 00:05:13;;;;;;;29.50;19.37;;;;;;;4.21;61.80;92540.80;1841103;77;21223;-82
2021/03/05 00:07:44;;;;;;;29.42;18.37;;;;;;;4.20;61.80;92530.61;1811395;79;21475;-82
2021/03/05 00:10:16;;;;;;;29.63;17.65;;;;;;;4.20;61.63;92530.61;1840273;77;21602;-82
2021/03/05 00:12:43;;;;;;;26.90;17.90;;;;;;;4.19;61.85;92525.62;1820288;76;21675;-81
2021/03/05 00:15:12;;;;;;;27.55;17.55;;;;;;;4.14;62.07;92518.68;1858425;76;21260;-84
2021/03/05 00:17:39;;;;;;;31.52;19.80;;;;;;;4.17;61.41;92519.83;1813491;78;21147;-83
2021/03/05 00:20:12;;;;;;;32.67;21.68;;;;;;;4.19;61.54;92526.97;1807652;79;21148;-78
2021/03/05 00:22:40;;;;;;;26.82;18.00;;;;;;;4.18;61.40;92518.13;1803794;78;21136;-81
2021/03/05 00:25:09;;;;;;;32.03;19.20;;;;;;;4.19;61.77;92529.08;1788824;78;21152;-81
2021/03/05 00:27:37;;;;;;;31.65;19.30;;;;;;;4.19;61.60;92511.59;1805641;78;21251;-82
2021/03/05 00:30:06;;;;;;;28.92;18.48;;;;;;;4.21;61.45;92517.92;1850916;77;21214;-83
2021/03/05 00:32:34;;;;;;;31.55;20.88;;;;;;;4.21;61.61;92513.89;1811814;78;21220;-83
2021/03/05 00:35:04;;;;;;;35.17;20.50;;;;;;;4.20;61.69;92513.12;1846238;77;21119;-83
2021/03/05 00:37:32;;;;;;;32.42;20.97;;;;;;;4.18;61.69;92506.02;1795937;78;21187;-82
2021/03/05 00:40:00;;;;;;;29.15;19.12;;;;;;;4.18;61.80;92499.87;1821895;78;22346;-83
2021/03/05 00:42:27;;;;;;;32.67;19.45;;;;;;;4.19;61.95;92500.82;1826514;77;21171;-83
2021/03/05 00:44:57;;;;;;;30.72;19.70;;;;;;;4.19;61.77;92497.36;1789368;80;21074;-83
2021/03/05 00:47:24;;;;;;;32.38;20.70;;;;;;;4.18;62.02;92491.22;1821378;78;21111;-83
2021/03/05 00:49:53;;;;;;;32.55;19.40;;;;;;;4.18;61.78;92495.25;1822953;78;21174;-79
2021/03/05 00:52:21;;;;;;;36.63;20.17;;;;;;;4.19;61.44;92481.22;1823150;78;21367;-84
2021/03/05 00:54:49;;;;;;;31.25;19.00;;;;;;;4.21;61.71;92494.47;1806442;78;21092;-83
2021/03/05 00:57:16;;;;;;;34.60;20.70;;;;;;;4.23;61.67;92476.05;1822614;78;21088;-83
2021/03/05 00:59:44;;;;;;;29.75;18.90;;;;;;;4.22;61.68;92473.74;1820245;78;21127;-80
2021/03/05 01:02:11;;;;;;;32.20;19.42;;;;;;;4.20;61.79;92472.76;1823093;78;21110;-79
2021/03/05 01:04:41;;;;;;;35.70;20.12;;;;;;;4.19;61.85;92466.42;1851903;77;22301;-83
2021/03/05 01:07:09;;;;;;;33.98;20.25;;;;;;;4.20;61.74;92458.53;1831854;77;21061;-80
2021/03/05 01:09:37;;;;;;;32.70;20.43;;;;;;;4.22;61.73;92477.78;1802873;78;21614;-80
2021/03/05 01:12:05;;;;;;;33.18;18.77;;;;;;;4.21;61.63;92460.07;1813173;79;21112;-81
2021/03/05 01:14:35;;;;;;;36.50;22.45;;;;;;;4.20;61.53;92449.12;1819215;78;21168;-82
2021/03/05 01:17:04;;;;;;;33.38;20.82;;;;;;;4.20;61.70;92441.05;1807881;78;21215;-82
2021/03/05 01:19:32;;;;;;;31.07;19.67;;;;;;;4.18;61.96;92449.51;1810158;79;21115;-84
2021/03/05 01:22:00;;;;;;;30.10;19.05;;;;;;;4.16;62.41;92453.72;1794240;79;21171;-81
2021/03/05 01:24:28;;;;;;;32.15;20.72;;;;;;;4.14;62.23;92454.11;1799567;78;21585;-80
2021/03/05 01:26:56;;;;;;;32.78;19.32;;;;;;;4.11;62.63;92447.55;1830286;78;21151;-84
2021/03/05 01:29:24;;;;;;;33.10;20.20;;;;;;;4.10;62.93;92454.09;1808348;79;21799;-80
2021/03/05 01:31:52;;;;;;;33.38;21.55;;;;;;;4.06;62.45;92444.44;1814069;79;21175;-83
2021/03/05 01:34:20;;;;;;;33.83;21.30;;;;;;;4.05;62.36;92432.91;1820188;78;21098;-83
2021/03/05 01:36:47;;;;;;;32.17;20.17;;;;;;;4.07;62.48;92433.89;1864816;76;21179;-79
2021/03/05 01:39:15;;;;;;;32.95;20.02;;;;;;;4.02;62.81;92434.23;1807981;79;21067;-81
2021/03/05 01:41:42;;;;;;;32.60;19.85;;;;;;;4.04;62.95;92437.33;1842174;78;21360;-80
2021/03/05 01:44:11;;;;;;;28.77;17.42;;;;;;;3.99;63.26;92435.78;1819516;78;21204;-82
2021/03/05 01:46:39;;;;;;;29.92;19.10;;;;;;;3.92;64.34;92445.73;1804225;77;21135;-83
2021/03/05 01:49:07;;;;;;;29.35;19.23;;;;;;;3.92;64.34;92445.73;1832483;77;21583;-83
2021/03/05 01:51:37;;;;;;;33.18;20.80;;;;;;;3.86;64.53;92444.72;1817860;78;21083;-82
2021/03/05 01:54:05;;;;;;;33.08;21.05;;;;;;;3.84;64.77;92440.31;1843216;77;21352;-83
2021/03/05 01:56:40;;;;;;;35.28;20.60;;;;;;;3.82;64.85;92445.86;1802068;78;21199;-84
2021/03/05 01:59:13;;;;;;;35.13;21.27;;;;;;;3.79;65.60;92445.26;1813310;79;21127;-83
2021/03/05 02:01:41;;;;;;;33.98;21.40;;;;;;;3.75;65.70;92448.50;1838124;77;21136;-80
2021/03/05 02:04:10;;;;;;;31.57;20.88;;;;;;;3.72;66.02;92454.63;1831383;78;21152;-80
2021/03/05 02:06:40;;;;;;;33.73;19.70;;;;;;;3.70;66.33;92454.25;1808131;77;21328;-80
2021/03/05 02:09:08;;;;;;;34.75;21.93;;;;;;;3.70;66.33;92454.25;1790160;78;21166;-81
2021/03/05 02:11:37;;;;;;;35.05;21.73;;;;;;;3.68;66.68;92445.77;1855816;77;21104;-80
2021/03/05 02:14:07;;;;;;;29.70;20.55;;;;;;;3.65;66.64;92446.73;1811393;78;21165;-81
2021/03/05 02:17:08;;;;;;;36.70;22.35;;;;;;;3.64;67.37;92451.12;1834410;76;21142;-79
2021/03/05 02:20:04;;;;;;;36.25;20.88;;;;;;;3.60;67.15;92437.66;1827778;78;21788;-81
2021/03/05 02:22:56;;;;;;;42.30;22.85;;;;;;;3.58;67.43;92439.20;1798334;79;21560;-80
2021/03/05 02:25:47;;;;;;;34.38;21.33;;;;;;;3.52;67.61;92440.11;1811220;78;21111;-81
2021/03/05 02:28:31;;;;;;;35.25;21.42;;;;;;;3.50;67.91;92453.71;1850131;77;21169;-80
2021/03/05 02:31:31;;;;;;;34.90;21.37;;;;;;;3.45;67.95;92446.77;1765854;79;21519;-80
2021/03/05 02:34:05;;;;;;;36.65;22.42;;;;;;;3.42;68.32;92447.52;1830374;78;21862;-81
2021/03/05 02:36:40;;;;;;;31.80;21.00;;;;;;;3.40;68.43;92451.16;1815972;78;21573;-79
2021/03/05 02:39:18;;;;;;;36.13;22.58;;;;;;;3.36;68.26;92449.80;1800051;79;21169;-81
2021/03/05 02:41:53;;;;;;;30.55;20.43;;;;;;;3.37;68.55;92452.67;1839847;78;21123;-82
2021/03/05 02:44:28;;;;;;;32.65;21.35;;;;;;;3.35;68.49;92452.29;1836501;76;21627;-82
2021/03/05 02:46:59;;;;;;;29.63;19.42;;;;;;;3.35;68.55;92454.20;1837935;76;21367;-81
2021/03/05 02:49:29;;;;;;;35.10;20.52;;;;;;;3.35;68.62;92440.20;1797315;77;21048;-81
2021/03/05 02:52:00;;;;;;;33.98;21.15;;;;;;;3.36;68.74;92454.40;1871743;75;21123;-82
2021/03/05 02:54:28;;;;;;;31.90;21.37;;;;;;;3.34;68.86;92442.66;1794210;78;21170;-79
2021/03/05 02:56:56;;;;;;;31.05;19.92;;;;;;;3.34;68.78;92447.27;1756865;80;21171;-77
2021/03/05 02:59:24;;;;;;;32.25;21.30;;;;;;;3.33;68.59;92430.38;1751405;79;21875;-80
2021/03/05 03:01:53;;;;;;;29.98;18.67;;;;;;;3.35;68.60;92444.23;1772139;79;21162;-79
2021/03/05 03:04:21;;;;;;;26.45;18.02;;;;;;;3.34;68.83;92443.23;1754570;79;21077;-81
2021/03/05 03:06:48;;;;;;;34.27;21.37;;;;;;;3.33;69.01;92451.11;1735785;80;21147;-82
2021/03/05 03:09:17;;;;;;;32.73;20.92;;;;;;;3.32;68.75;92465.13;1779033;79;21190;-82
2021/03/05 03:11:44;;;;;;;27.02;18.77;;;;;;;3.32;68.80;92463.01;1802218;78;21484;-82
2021/03/05 03:14:13;;;;;;;30.80;20.88;;;;;;;3.33;69.32;92453.80;1784269;78;21586;-81
2021/03/05 03:16:42;;;;;;;30.05;19.87;;;;;;;3.31;69.25;92452.04;1800097;79;21733;-81
2021/03/05 03:19:12;;;;;;;29.12;20.23;;;;;;;3.32;69.04;92456.29;1796367;79;21148;-81
2021/03/05 03:21:40;;;;;;;29.10;19.50;;;;;;;3.30;69.11;92460.67;1759994;80;21140;-80
2021/03/05 03:24:08;;;;;;;30.45;18.48;;;;;;;3.30;69.09;92455.87;1746718;82;21054;-81
2021/03/05 03:26:36;;;;;;;28.17;20.25;;;;;;;3.31;69.61;92476.22;1785676;78;21131;-83
2021/03/05 03:29:06;;;;;;;31.20;20.23;;;;;;;3.29;69.79;92476.61;1755880;79;21204;-81
2021/03/05 03:31:36;;;;;;;28.92;18.52;;;;;;;3.26;69.79;92470.63;1770206;80;21160;-81
2021/03/05 03:34:05;;;;;;;29.00;19.82;;;;;;;3.25;70.07;92470.44;1786190;80;21230;-82
2021/03/05 03:36:39;;;;;;;25.43;17.92;;;;;;;3.23;70.19;92468.67;1751907;81;21777;-81
2021/03/05 03:39:09;;;;;;;29.10;17.82;;;;;;;3.23;70.29;92465.22;1712884;83;21097;-81
2021/03/05 03:41:38;;;;;;;30.02;20.70;;;;;;;3.22;70.66;92475.78;1781504;79;21151;-81
2021/03/05 03:44:07;;;;;;;33.18;21.02;;;;;;;3.19;70.70;92464.42;1746208;82;21433;-80
2021/03/05 03:46:39;;;;;;;32.48;21.77;;;;;;;3.20;70.75;92472.67;1768578;81;21104;-82
2021/03/05 03:49:10;;;;;;;31.00;20.37;;;;;;;3.22;70.78;92475.78;1741074;81;21357;-82
2021/03/05 03:51:45;;;;;;;34.20;21.70;;;;;;;3.21;71.01;92476.35;1819931;78;21613;-83
2021/03/05 03:54:15;;;;;;;29.82;20.35;;;;;;;3.22;71.03;92472.52;1789655;79;21155;-82
2021/03/05 03:56:43;;;;;;;31.55;20.43;;;;;;;3.24;71.20;92472.16;1786447;80;21192;-82
2021/03/05 03:59:14;;;;;;;35.52;22.37;;;;;;;3.24;71.22;92469.47;1763057;80;21150;-81
2021/03/05 04:01:44;;;;;;;32.95;20.70;;;;;;;3.23;71.35;92471.94;1787449;77;21438;-82
2021/03/05 04:04:14;;;;;;;32.98;21.55;;;;;;;3.24;71.17;92473.51;1838805;77;21163;-82
2021/03/05 04:06:46;;;;;;;32.33;21.80;;;;;;;3.24;71.18;92464.88;1783841;79;21429;-80
2021/03/05 04:09:14;;;;;;;32.70;21.30;;;;;;;3.23;71.21;92461.19;1808217;79;21177;-82
2021/03/05 04:11:43;;;;;;;32.48;21.65;;;;;;;3.24;71.10;92456.04;1837481;77;21163;-82
2021/03/05 04:14:11;;;;;;;36.95;22.25;;;;;;;3.24;71.29;92454.70;1809955;78;21790;-80
2021/03/05 04:16:39;;;;;;;36.25;22.55;;;;;;;3.23;71.28;92449.10;1764313;80;21077;-81
2021/03/05 04:19:06;;;;;;;37.93;22.37;;;;;;;3.23;71.42;92443.16;1790952;79;21167;-80
2021/03/05 04:21:35;;;;;;;33.60;20.50;;;;;;;3.21;71.58;92435.28;1820418;78;21075;-81
2021/03/05 04:24:04;;;;;;;32.20;20.70;;;;;;;3.20;71.62;92447.95;1771324;79;21176;-82
2021/03/05 04:26:32;;;;;;;37.48;23.27;;;;;;;3.16;71.83;92441.20;1753695;80;21327;-81
2021/03/05 04:28:59;;;;;;;33.65;22.02;;;;;;;3.14;71.86;92444.82;1787546;79;21170;-79
2021/03/05 04:31:27;;;;;;;38.10;22.85;;;;;;;3.13;72.09;92439.26;1800996;79;21137;-82
2021/03/05 04:33:56;;;;;;;34.53;22.67;;;;;;;3.14;72.09;92440.80;1780983;80;21964;-82
2021/03/05 04:36:23;;;;;;;38.28;24.65;;;;;;;3.15;72.12;92442.33;1789744;80;21152;-82
2021/03/05 04:38:53;;;;;;;28.42;18.48;;;;;;;3.15;72.15;92436.95;1786669;79;21387;-81
2021/03/05 04:41:20;;;;;;;36.45;23.35;;;;;;;3.16;72.05;92432.37;1797829;78;21056;-80
2021/03/05 04:43:49;;;;;;;40.75;22.75;;;;;;;3.15;72.16;92430.23;1784889;79;21100;-81
2021/03/05 04:46:17;;;;;;;31.52;20.43;;;;;;;3.16;72.16;92435.06;1809564;79;21181;-81
2021/03/05 04:48:45;;;;;;;36.13;23.15;;;;;;;3.17;72.25;92428.54;1808270;79;21167;-81
2021/03/05 04:51:13;;;;;;;37.28;25.20;;;;;;;3.14;72.40;92426.59;1800307;79;21262;-81
2021/03/05 04:53:41;;;;;;;36.28;22.77;;;;;;;3.14;72.61;92427.36;1812818;78;21048;-83
2021/03/05 04:56:08;;;;;;;32.93;22.45;;;;;;;3.13;72.57;92427.75;1805508;77;21143;-82
2021/03/05 04:58:36;;;;;;;39.18;23.25;;;;;;;3.11;72.79;92417.36;1822312;77;21104;-79
2021/03/05 05:01:04;;;;;;;38.65;23.50;;;;;;;3.14;72.95;92425.25;1789409;79;21312;-81
2021/03/05 05:03:31;;;;;;;35.78;22.82;;;;;;;3.14;72.85;92418.53;1821052;78;21860;-81
2021/03/05 05:05:59;;;;;;;38.85;24.63;;;;;;;3.15;72.74;92418.73;1785524;79;21248;-81
2021/03/05 05:08:27;;;;;;;34.63;22.13;;;;;;;3.14;72.79;92417.96;1817973;78;21191;-82
2021/03/05 05:10:55;;;;;;;35.00;21.27;;;;;;;3.16;72.72;92416.27;1785995;79;21770;-81
2021/03/05 05:13:22;;;;;;;40.48;24.75;;;;;;;3.17;72.86;92409.73;1823894;77;21109;-82
2021/03/05 05:15:50;;;;;;;40.85;25.30;;;;;;;3.13;72.84;92398.96;1809374;79;21983;-82
2021/03/05 05:18:19;;;;;;;40.00;25.08;;;;;;;3.14;72.94;92410.48;1839023;78;21188;-82
2021/03/05 05:20:48;;;;;;;40.38;25.20;;;;;;;3.13;72.96;92402.99;1851266;76;21135;-81
2021/03/05 05:23:16;;;;;;;35.70;21.87;;;;;;;3.14;73.02;92408.56;1814804;78;21195;-82
2021/03/05 05:25:43;;;;;;;40.63;24.67;;;;;;;3.14;73.09;92411.24;1803966;79;21223;-83
2021/03/05 05:28:11;;;;;;;35.50;21.70;;;;;;;3.14;73.18;92406.45;1787699;79;21429;-82
2021/03/05 05:30:39;;;;;;;41.98;27.20;;;;;;;3.16;73.09;92401.48;1827572;77;21165;-83
2021/03/05 05:33:06;;;;;;;38.17;23.02;;;;;;;3.18;73.21;92394.39;1791484;78;21188;-82
2021/03/05 05:35:34;;;;;;;38.60;23.85;;;;;;;3.19;73.29;92395.92;1841701;77;21170;-82
2021/03/05 05:38:02;;;;;;;41.45;24.72;;;;;;;3.19;73.39;92389.97;1856246;77;21174;-83
2021/03/05 05:40:30;;;;;;;33.85;20.37;;;;;;;3.20;73.48;92398.80;1817755;78;22230;-82
2021/03/05 05:42:57;;;;;;;37.53;23.38;;;;;;;3.18;73.61;92411.84;1841209;77;21143;-83
2021/03/05 05:45:26;;;;;;;38.35;22.62;;;;;;;3.14;73.67;92417.96;1787834;78;21164;-82
2021/03/05 05:47:54;;;;;;;37.50;22.95;;;;;;;3.14;73.77;92411.24;1836640;77;21179;-83
2021/03/05 05:50:22;;;;;;;35.03;21.10;;;;;;;3.13;73.99;92416.42;1799863;78;21154;-81
2021/03/05 05:52:56;;;;;;;40.08;21.70;;;;;;;3.13;74.47;92419.69;1826515;76;21431;-82
2021/03/05 05:55:24;;;;;;;41.13;23.18;;;;;;;3.15;75.05;92412.78;1869173;76;21151;-82
2021/03/05 05:57:52;;;;;;;39.05;22.25;;;;;;;3.21;75.13;92408.42;1816444;79;21122;-80
2021/03/05 06:00:22;;;;;;;41.58;23.70;;;;;;;3.31;75.06;92411.19;1820928;78;21183;-82
2021/03/05 06:02:50;;;;;;;36.38;20.95;;;;;;;3.39;74.97;92422.17;1833012;78;21543;-81
2021/03/05 06:05:18;;;;;;;31.87;20.32;;;;;;;3.47;74.88;92418.20;1840947;76;22228;-83
2021/03/05 06:07:46;;;;;;;35.70;20.32;;;;;;;3.51;74.73;92437.23;1801786;79;21195;-82
2021/03/05 06:10:13;;;;;;;39.38;21.42;;;;;;;3.53;74.54;92433.58;1841853;77;21144;-82
2021/03/05 06:12:46;;;;;;;42.25;22.60;;;;;;;3.55;74.44;92437.25;1807414;79;21236;-83
2021/03/05 06:15:17;;;;;;;39.70;23.38;;;;;;;3.58;74.50;92435.94;1811283;78;21191;-82
2021/03/05 06:17:48;;;;;;;37.58;22.70;;;;;;;3.56;74.69;92440.90;1828126;77;21247;-83
2021/03/05 06:20:17;;;;;;;35.58;21.70;;;;;;;3.55;74.70;92446.66;1842399;76;21156;-81
2021/03/05 06:22:46;;;;;;;28.47;17.92;;;;;;;3.58;74.97;92431.13;1865414;76;21266;-80
2021/03/05 06:25:18;;;;;;;37.63;23.00;;;;;;;3.62;75.03;92431.34;1820656;78;21613;-82
2021/03/05 06:27:46;;;;;;;39.60;22.62;;;;;;;3.63;74.86;92424.05;1818782;78;21218;-82
2021/03/05 06:30:15;;;;;;;39.13;24.02;;;;;;;3.68;74.96;92426.95;1820656;77;21581;-82
2021/03/05 06:32:45;;;;;;;37.63;21.73;;;;;;;3.75;75.28;92436.41;1853583;76;21171;-82
2021/03/05 06:35:13;;;;;;;35.48;20.20;;;;;;;3.80;75.12;92426.08;1802079;78;21764;-79
2021/03/05 06:37:46;;;;;;;37.88;21.75;;;;;;;3.87;74.65;92436.08;1749119;77;22225;-82
2021/03/05 06:40:16;;;;;;;;;;;;;;;3.89;74.69;92432.45;1846155;77;21151;-83
2021/03/05 06:42:53;;;;;;;35.25;21.42;;;;;;;3.93;74.62;92437.85;1822532;77;21374;-82
2021/03/05 06:45:24;;;;;;;38.75;23.02;;;;;;;3.95;74.47;92442.27;1845465;77;21155;-82
2021/03/05 06:48:09;;;;;;;44.80;24.67;;;;;;;3.92;74.48;92450.53;1810115;77;21195;-82
2021/03/05 06:50:39;;;;;;;34.30;21.57;;;;;;;3.90;74.50;92443.41;1785149;80;21235;-81
2021/03/05 06:53:23;;;;;;;34.55;20.48;;;;;;;3.92;74.84;92443.05;1818536;78;21108;-83
2021/03/05 06:55:52;;;;;;;37.00;19.85;;;;;;;3.86;74.96;92438.00;1790977;78;22303;-81
2021/03/05 06:58:20;;;;;;;28.92;18.85;;;;;;;3.86;74.96;92438.00;1820733;78;21705;-83
2021/03/05 07:00:48;;;;;;;32.23;20.50;;;;;;;3.90;75.04;92438.02;1789792;78;21159;-82
2021/03/05 07:03:23;;;;;;;35.63;20.50;;;;;;;3.95;75.31;92443.06;1812137;78;21656;-82
2021/03/05 07:05:53;;;;;;;30.90;18.05;;;;;;;4.00;75.31;92435.97;1840574;77;21156;-81
2021/03/05 07:08:44;;;;;;;26.45;17.10;;;;;;;4.06;75.00;92439.05;1802079;78;21194;-82
2021/03/05 07:11:33;;;;;;;39.03;20.88;;;;;;;4.10;74.87;92441.21;1843029;77;21159;-82
2021/03/05 07:14:02;;;;;;;31.50;20.10;;;;;;;4.11;74.60;92447.55;1844133;77;21291;-83
2021/03/05 07:16:41;;;;;;;29.63;17.98;;;;;;;4.19;74.68;92442.97;1821226;78;21174;-81
2021/03/05 07:19:16;;;;;;;31.20;19.17;;;;;;;4.28;74.45;92439.34;1761879;80;39334;-79
2021/03/05 07:21:46;;;;;;;33.40;20.50;;;;;;;4.30;73.81;92448.40;1794233;79;21485;-78
2021/03/05 07:24:16;;;;;;;33.88;18.10;;;;;;;4.32;73.46;92437.43;1778812;80;21245;-81
2021/03/05 07:26:59;;;;;;;29.52;17.90;;;;;;;4.32;73.46;92437.43;1799080;78;21485;-79
2021/03/05 07:29:45;;;;;;;29.72;18.40;;;;;;;4.38;74.34;92444.58;1791158;79;21191;-78
2021/03/05 07:32:26;;;;;;;31.35;17.50;;;;;;;4.46;73.83;92444.03;1765578;80;21214;-80
2021/03/05 07:35:15;;;;;;;32.17;18.40;;;;;;;4.50;73.25;92436.16;1748187;78;21390;-81
2021/03/05 07:37:48;;;;;;;29.18;18.42;;;;;;;4.54;73.12;92441.55;1815714;78;21249;-79
2021/03/05 07:40:17;;;;;;;33.33;19.17;;;;;;;4.59;72.93;92442.55;1803726;79;21161;-79
2021/03/05 07:42:45;;;;;;;29.60;17.75;;;;;;;4.62;72.83;92441.75;1827451;77;21147;-79
2021/03/05 07:45:14;;;;;;;29.65;18.12;;;;;;;4.66;72.16;92436.38;1806897;79;21211;-79
2021/03/05 07:47:45;;;;;;;34.13;19.92;;;;;;;4.66;72.16;92436.38;1787300;79;22226;-80
2021/03/05 07:50:16;;;;;;;36.08;20.85;;;;;;;4.67;72.09;92436.02;1820046;77;21765;-82
2021/03/05 07:52:43;;;;;;;34.67;18.75;;;;;;;4.68;71.97;92429.47;1765964;79;21435;-81
2021/03/05 07:55:14;;;;;;;31.30;18.17;;;;;;;4.71;72.26;92431.41;1790762;78;22264;-79
2021/03/05 07:57:46;;;;;;;29.90;18.90;;;;;;;4.71;72.26;92431.41;1736052;80;21160;-81
2021/03/05 08:00:16;;;;;;;33.00;19.23;;;;;;;4.70;71.73;92427.18;1740578;81;21444;-81
2021/03/05 08:02:55;;;;;;;29.15;17.98;;;;;;;4.70;71.73;92427.18;1760321;80;21187;-83
2021/03/05 08:05:44;;;;;;;34.05;19.05;;;;;;;4.70;71.77;92420.45;1788237;79;21124;-81
2021/03/05 08:08:26;;;;;;;31.68;19.87;;;;;;;4.70;71.77;92435.81;1780238;80;21191;-83
2021/03/05 08:10:59;;;;;;;28.00;16.70;;;;;;;4.68;71.67;92420.05;1792716;80;21523;-82
2021/03/05 08:13:51;;;;;;;41.50;21.25;;;;;;;4.72;71.76;92418.13;1769455;81;21355;-81
2021/03/05 08:16:33;;;;;;;37.15;20.37;;;;;;;4.79;71.33;92422.77;1776910;80;21167;-83
2021/03/05 08:19:14;;;;;;;31.43;20.00;;;;;;;4.80;71.21;92420.26;1757110;79;21125;-82
2021/03/05 08:21:57;;;;;;;35.40;20.12;;;;;;;4.83;71.05;92429.69;1803182;78;21128;-79
2021/03/05 08:24:29;;;;;;;35.92;19.40;;;;;;;4.85;71.07;92417.17;1768751;78;21165;-79
2021/03/05 08:27:19;;;;;;;37.05;18.45;;;;;;;4.82;70.64;92402.57;1817961;78;21203;-81
2021/03/05 08:30:13;;;;;;;35.65;18.87;;;;;;;4.84;71.01;92416.98;1785194;77;21248;-83
2021/03/05 08:33:02;;;;;;;30.00;18.95;;;;;;;4.84;71.01;92416.98;1825185;77;21136;-80
2021/03/05 08:35:37;;;;;;;28.62;19.30;;;;;;;4.83;70.84;92406.80;1804338;78;21758;-81
2021/03/05 08:38:14;;;;;;;30.02;19.48;;;;;;;4.84;70.95;92400.25;1793421;77;21179;-82
2021/03/05 08:40:51;;;;;;;28.05;17.23;;;;;;;4.87;71.39;92404.11;1801336;78;21380;-81
2021/03/05 08:43:23;;;;;;;30.48;19.10;;;;;;;4.92;71.13;92405.64;1817352;78;21937;-80
2021/03/05 08:46:00;;;;;;;33.02;18.40;;;;;;;4.95;71.21;92397.56;1807688;77;21582;-83
2021/03/05 08:48:42;;;;;;;36.08;18.50;;;;;;;4.93;71.18;92391.81;1788449;78;21167;-81
2021/03/05 08:51:21;;;;;;;31.65;18.92;;;;;;;4.88;71.65;92400.25;1810862;77;21131;-83
2021/03/05 08:53:52;;;;;;;30.55;19.23;;;;;;;4.87;71.67;92405.45;1787791;79;21357;-82
2021/03/05 08:56:30;;;;;;;28.90;18.02;;;;;;;;;;1757579;80;21625;-84
2021/03/05 08:59:06;;;;;;;25.65;16.25;;;;;;;4.84;72.49;92408.33;1779085;79;21167;-80
2021/03/05 09:01:40;;;;;;;34.23;20.15;;;;;;;4.83;71.67;92398.72;1766777;79;21177;-82
2021/03/05 09:04:22;;;;;;;30.62;17.62;;;;;;;4.77;72.22;92404.86;1768679;80;21165;-82
2021/03/05 09:06:55;;;;;;;32.05;19.23;;;;;;;4.74;72.17;92413.14;1778657;79;21771;-82
2021/03/05 09:09:27;;;;;;;26.85;16.73;;;;;;;4.72;72.39;92403.90;1776708;80;21187;-81
2021/03/05 09:12:14;;;;;;;37.70;19.02;;;;;;;4.75;72.30;92402.56;1773229;80;21195;-81
2021/03/05 09:14:43;;;;;;;27.50;16.73;;;;;;;4.78;72.74;92406.42;1782023;78;21382;-84
2021/03/05 09:17:13;;;;;;;31.37;16.73;;;;;;;4.81;72.95;92413.16;1783340;79;21189;-81
2021/03/05 09:19:46;;;;;;;25.90;15.38;;;;;;;4.81;71.77;92408.33;1795937;78;21420;-82
2021/03/05 09:22:25;;;;;;;31.45;17.20;;;;;;;4.79;71.29;92406.02;1806188;77;21250;-80
2021/03/05 09:24:59;;;;;;;31.97;19.73;;;;;;;4.77;72.02;92402.16;1809411;79;21160;-82
2021/03/05 09:27:39;;;;;;;28.40;16.77;;;;;;;4.77;72.20;92410.24;1762019;78;21155;-82
2021/03/05 09:30:20;;;;;;;35.45;17.90;;;;;;;4.77;72.64;92412.94;1852919;76;21162;-82
2021/03/05 09:32:52;;;;;;;29.12;17.05;;;;;;;4.73;72.53;92418.31;1810870;77;21357;-82
2021/03/05 09:35:29;;;;;;;25.32;15.88;;;;;;;4.73;72.68;92417.55;1797580;78;21156;-81
2021/03/05 09:37:58;;;;;;;28.50;16.20;;;;;;;4.73;72.68;92417.55;1801633;79;21457;-83
2021/03/05 09:40:27;;;;;;;22.48;15.28;;;;;;;4.65;73.32;92414.08;1792078;78;21191;-83
2021/03/05 09:43:00;;;;;;;20.95;13.13;;;;;;;4.60;73.38;92423.88;1819466;77;21589;-82
2021/03/05 09:45:41;;;;;;;23.60;13.88;;;;;;;4.47;73.20;92418.06;1824830;77;22205;-81
2021/03/05 09:48:13;;;;;;;22.15;16.10;;;;;;;4.24;73.59;92423.76;1776528;80;21198;-82
2021/03/05 09:50:41;;;;;;;17.80;12.47;;;;;;;4.04;74.73;92422.53;1776763;80;21645;-81
2021/03/05 09:53:25;;;;;;;16.87;11.70;;;;;;;3.94;75.42;92415.95;1766656;80;21240;-83
2021/03/05 09:55:56;;;;;;;17.42;11.12;;;;;;;3.80;75.54;92425.28;1799772;79;21183;-81
2021/03/05 09:58:23;;;;;;;18.65;11.73;;;;;;;3.55;76.19;92418.44;1802319;79;21347;-82
2021/03/05 10:00:53;;;;;;;15.95;9.50;;;;;;;3.31;76.36;92433.23;1801842;79;21175;-83
2021/03/05 10:03:21;;;;;;;15.13;9.20;;;;;;;3.13;76.96;92436.57;1773888;80;21143;-85
2021/03/05 10:05:49;;;;;;;15.48;9.25;;;;;;;3.07;77.43;92446.68;1766564;81;21202;-82
2021/03/05 10:08:24;;;;;;;14.03;8.70;;;;;;;2.97;77.43;92452.72;1769458;80;21886;-81
2021/03/05 10:11:12;;;;;;;14.93;8.93;;;;;;;2.91;77.65;92447.70;1783914;79;21417;-81
2021/03/05 10:13:52;;;;;;;13.18;8.18;;;;;;;2.81;78.07;92452.97;1781320;79;21173;-81
2021/03/05 10:16:41;;;;;;;12.37;8.10;;;;;;;2.72;78.50;92455.96;1818056;78;21180;-81
2021/03/05 10:19:14;;;;;;;10.38;7.97;;;;;;;2.64;78.80;92452.44;1820548;77;21231;-82
2021/03/05 10:21:48;;;;;;;12.07;8.23;;;;;;;2.55;78.88;92450.60;1823432;77;21175;-80
2021/03/05 10:24:19;;;;;;;10.63;7.45;;;;;;;2.46;79.04;92458.76;1788144;77;21315;-82
2021/03/05 10:27:11;;;;;;;7.92;6.20;;;;;;;2.38;79.27;92463.27;1772667;80;21653;-81
2021/03/05 10:29:44;;;;;;;10.25;6.87;;;;;;;2.33;78.79;92468.95;1748112;82;21187;-80
2021/03/05 10:32:24;;;;;;;11.43;6.70;;;;;;;2.25;78.98;92453.34;1814967;77;21167;-81
2021/03/05 10:34:57;;;;;;;8.90;6.53;;;;;;;2.19;79.92;92452.91;1790625;78;21552;-81
2021/03/05 10:37:25;;;;;;;9.58;6.37;;;;;;;2.16;80.01;92459.56;1825511;77;21415;-82
2021/03/05 10:39:53;;;;;;;8.60;6.35;;;;;;;2.14;80.05;92463.17;1785829;79;21211;-80
2021/03/05 10:42:23;;;;;;;8.65;6.53;;;;;;;2.14;80.12;92459.15;1752509;80;21180;-82
2021/03/05 10:44:53;;;;;;;8.68;5.50;;;;;;;2.17;79.94;92455.74;1779145;80;21155;-81
2021/03/05 10:47:22;;;;;;;7.47;5.00;;;;;;;2.19;80.21;92452.91;1798002;79;21189;-80
2021/03/05 10:49:50;;;;;;;7.47;5.60;;;;;;;2.23;79.93;92469.05;1777383;79;21164;-81
2021/03/05 10:52:26;;;;;;;8.63;6.00;;;;;;;2.26;79.43;92453.56;1741272;80;21180;-83
2021/03/05 10:54:51;;;;;;;9.13;6.17;;;;;;;2.23;78.91;92461.57;1820157;78;21199;-80
2021/03/05 10:57:20;;;;;;;8.98;5.80;;;;;;;2.17;78.29;92457.08;1836824;77;21264;-82
2021/03/05 10:59:48;;;;;;;9.28;5.92;;;;;;;2.06;77.93;92458.86;1781281;79;21153;-84
2021/03/05 11:02:16;;;;;;;7.80;6.60;;;;;;;1.92;78.42;92458.14;1805123;79;21152;-81
2021/03/05 11:04:44;;;;;;;9.23;6.72;;;;;;;1.77;78.21;92466.56;1764369;79;21214;-81
2021/03/05 11:07:12;;;;;;;9.53;6.45;;;;;;;1.68;78.39;92470.05;1806915;79;21876;-81
2021/03/05 11:09:40;;;;;;;13.15;9.00;;;;;;;1.62;78.46;92473.62;1825729;77;21147;-81
2021/03/05 11:12:10;;;;;;;9.55;7.37;;;;;;;1.56;78.43;92473.72;1777634;78;21178;-81
2021/03/05 11:14:38;;;;;;;12.45;8.23;;;;;;;1.51;78.17;92483.42;1826512;77;21364;-81
2021/03/05 11:17:05;;;;;;;11.57;7.97;;;;;;;1.40;77.84;92479.81;1783209;77;21165;-81
2021/03/05 11:19:33;;;;;;;13.08;8.93;;;;;;;1.30;77.81;92469.13;1792406;79;21150;-82
2021/03/05 11:22:01;;;;;;;14.13;9.35;;;;;;;1.24;77.80;92481.27;1787085;78;21164;-81
2021/03/05 11:24:29;;;;;;;15.53;9.70;;;;;;;1.13;77.24;92470.41;1779904;79;21246;-82
2021/03/05 11:26:57;;;;;;;16.77;10.65;;;;;;;1.05;77.78;92482.69;1789487;79;21904;-80
2021/03/05 11:29:24;;;;;;;15.43;10.63;;;;;;;0.93;78.07;92475.61;1802279;78;21651;-80
2021/03/05 11:31:52;;;;;;;16.10;10.55;;;;;;;0.89;77.98;92480.13;1810604;79;21667;-81
2021/03/05 11:34:19;;;;;;;17.10;10.23;;;;;;;0.82;77.56;92483.45;1813961;77;21161;-81
2021/03/05 11:36:48;;;;;;;16.60;10.70;;;;;;;0.80;77.39;92486.30;1814432;77;21180;-81
2021/03/05 11:39:16;;;;;;;14.93;10.35;;;;;;;0.77;76.53;92492.36;1814356;77;21662;-81
2021/03/05 11:41:44;;;;;;;14.20;9.95;;;;;;;0.72;76.41;92490.75;1814096;77;21679;-81
2021/03/05 11:44:13;;;;;;;18.12;10.60;;;;;;;0.70;76.41;92502.36;1836817;77;21203;-82
2021/03/05 11:46:41;;;;;;;16.15;9.55;;;;;;;0.68;77.00;92495.27;1812266;78;21139;-81